createdAt,value
2022-11-10T00:01:13.485Z,2.00
2022-11-10T00:03:36.192Z,1.67
2022-11-10T00:05:57.044Z,1.63
2022-11-10T00:08:18.084Z,2.20
2022-11-10T00:10:58.754Z,1.40
2022-11-10T00:13:19.799Z,1.60
2022-11-10T00:15:59.402Z,1.33
2022-11-10T00:18:20.332Z,1.47
2022-11-10T00:20:40.850Z,1.50
2022-11-10T00:23:11.879Z,1.20
2022-11-10T00:25:33.105Z,1.67
2022-11-10T00:27:54.042Z,1.38
2022-11-10T00:30:15.138Z,1.50
2022-11-10T00:32:35.772Z,1.67
2022-11-10T00:34:56.506Z,1.73
2022-11-10T00:38:07.165Z,1.80
2022-11-10T00:40:28.156Z,1.97
2022-11-10T00:42:48.943Z,2.20
2022-11-10T00:45:10.297Z,2.00
2022-11-10T00:47:31.237Z,2.40
2022-11-10T00:49:52.089Z,2.10
2022-11-10T00:52:12.823Z,1.80
2022-11-10T00:54:33.940Z,1.80
2022-11-10T00:56:54.695Z,2.20
2022-11-10T00:59:15.912Z,2.60
2022-11-10T01:01:36.816Z,2.27
2022-11-10T01:03:57.919Z,2.63
2022-11-10T01:06:20.520Z,4.30
2022-11-10T01:08:42.490Z,2.47
2022-11-10T01:11:15.183Z,2.67
2022-11-10T01:13:36.901Z,2.67
2022-11-10T01:15:57.769Z,2.50
2022-11-10T01:18:18.681Z,2.47
2022-11-10T01:20:39.677Z,2.20
2022-11-10T01:23:00.944Z,2.37
2022-11-10T01:25:22.229Z,2.10
2022-11-10T01:27:42.889Z,2.77
2022-11-10T01:30:04.681Z,2.10
2022-11-10T01:32:25.555Z,1.93
2022-11-10T01:34:46.485Z,2.80
2022-11-10T01:37:07.320Z,2.47
2022-11-10T01:39:28.301Z,2.37
2022-11-10T01:42:51.725Z,2.15
2022-11-10T01:45:24.200Z,2.50
2022-11-10T01:47:45.159Z,2.47
2022-11-10T01:50:06.736Z,2.20
2022-11-10T01:52:27.757Z,2.70
2022-11-10T01:54:49.905Z,1.70
2022-11-10T01:57:12.947Z,2.20
2022-11-10T01:59:38.971Z,1.80
2022-11-10T02:02:06.912Z,2.10
2022-11-10T02:04:27.778Z,1.80
2022-11-10T02:06:49.891Z,1.97
2022-11-10T02:09:11.262Z,2.07
2022-11-10T02:11:33.263Z,2.73
2022-11-10T02:13:54.411Z,1.80
2022-11-10T02:16:15.473Z,2.70
2022-11-10T02:18:37.996Z,2.00
2022-11-10T02:20:58.825Z,2.00
2022-11-10T02:23:34.499Z,1.90
2022-11-10T02:25:55.454Z,2.00
2022-11-10T02:28:16.082Z,2.33
2022-11-10T02:30:36.980Z,2.80
2022-11-10T02:32:57.693Z,2.53
2022-11-10T02:35:18.460Z,1.90
2022-11-10T02:37:39.250Z,1.73
2022-11-10T02:40:26.028Z,2.13
2022-11-10T02:42:46.985Z,2.40
2022-11-10T02:45:08.824Z,2.03
2022-11-10T02:47:29.622Z,1.70
2022-11-10T02:49:50.438Z,2.23
2022-11-10T02:52:11.415Z,2.10
2022-11-10T02:54:32.309Z,2.30
2022-11-10T02:56:53.240Z,1.80
2022-11-10T02:59:15.040Z,2.03
2022-11-10T03:01:35.827Z,1.93
2022-11-10T03:03:56.635Z,1.70
2022-11-10T03:06:17.455Z,1.87
2022-11-10T03:08:39.345Z,2.30
2022-11-10T03:11:00.315Z,1.87
2022-11-10T03:13:21.571Z,2.60
2022-11-10T03:15:42.708Z,1.70
2022-11-10T03:18:04.948Z,2.10
2022-11-10T03:20:27.839Z,2.03
2022-11-10T03:22:48.900Z,2.20
2022-11-10T03:25:11.504Z,2.03
2022-11-10T03:27:33.452Z,1.93
2022-11-10T03:29:54.218Z,2.40
2022-11-10T03:32:14.764Z,2.10
2022-11-10T03:34:35.523Z,2.87
2022-11-10T03:36:56.469Z,2.43
2022-11-10T03:39:17.366Z,2.50
2022-11-10T03:41:38.251Z,2.37
2022-11-10T03:43:59.010Z,2.40
2022-11-10T03:46:19.629Z,2.80
2022-11-10T03:48:40.239Z,2.83
2022-11-10T03:51:01.044Z,1.83
2022-11-10T03:53:22.150Z,2.00
2022-11-10T03:55:43.042Z,2.00
2022-11-10T03:58:04.722Z,1.87
2022-11-10T04:00:25.347Z,2.27
2022-11-10T04:02:45.795Z,2.20
2022-11-10T04:05:26.075Z,2.00
2022-11-10T04:08:05.317Z,2.20
2022-11-10T04:10:26.346Z,2.20
2022-11-10T04:13:05.749Z,1.70
2022-11-10T04:15:42.129Z,1.90
2022-11-10T04:18:21.291Z,1.85
2022-11-10T04:20:42.415Z,1.73
2022-11-10T04:23:22.076Z,1.88
2022-11-10T04:26:03.412Z,1.27
2022-11-10T04:28:24.144Z,1.50
2022-11-10T04:30:45.003Z,1.80
2022-11-10T04:33:05.888Z,1.50
2022-11-10T04:35:26.907Z,1.93
2022-11-10T04:37:47.879Z,1.90
2022-11-10T04:40:09.210Z,2.08
2022-11-10T04:42:30.374Z,1.60
2022-11-10T04:44:51.346Z,1.80
2022-11-10T04:47:12.285Z,2.00
2022-11-10T04:49:32.901Z,2.60
2022-11-10T04:51:53.997Z,1.87
2022-11-10T04:54:14.969Z,3.27
2022-11-10T04:56:35.871Z,2.00
2022-11-10T04:59:24.908Z,2.43
2022-11-10T05:01:45.519Z,2.47
2022-11-10T05:04:06.277Z,2.33
2022-11-10T05:06:27.931Z,2.20
2022-11-10T05:08:49.149Z,2.63
2022-11-10T05:11:10.900Z,2.50
2022-11-10T05:13:31.738Z,2.57
2022-11-10T05:15:53.430Z,2.00
2022-11-10T05:18:14.193Z,2.33
2022-11-10T05:20:34.952Z,2.53
2022-11-10T05:23:14.592Z,2.17
2022-11-10T05:25:38.153Z,2.50
2022-11-10T05:27:59.187Z,2.13
2022-11-10T05:30:20.148Z,2.03
2022-11-10T05:32:41.317Z,2.47
2022-11-10T05:35:02.360Z,2.07
2022-11-10T05:37:23.254Z,1.83
2022-11-10T05:39:44.378Z,2.37
2022-11-10T05:42:06.060Z,1.80
2022-11-10T05:44:27.003Z,2.27
2022-11-10T05:46:48.396Z,1.30
2022-11-10T05:49:09.591Z,1.90
2022-11-10T05:51:30.647Z,2.23
2022-11-10T05:53:51.746Z,2.00
2022-11-10T05:56:28.040Z,1.97
2022-11-10T05:58:48.548Z,1.80
2022-11-10T06:01:09.423Z,1.77
2022-11-10T06:03:30.594Z,1.52
2022-11-10T06:05:51.524Z,1.70
2022-11-10T06:08:12.284Z,1.33
2022-11-10T06:10:34.104Z,1.60
2022-11-10T06:12:58.262Z,1.63
2022-11-10T06:15:19.702Z,1.90
2022-11-10T06:17:41.409Z,1.70
2022-11-10T06:20:02.146Z,1.60
2022-11-10T06:22:23.084Z,1.40
2022-11-10T06:24:44.417Z,1.40
2022-11-10T06:27:05.339Z,2.00
2022-11-10T06:29:27.081Z,1.40
2022-11-10T06:31:47.772Z,1.20
2022-11-10T06:34:08.645Z,1.52
2022-11-10T06:36:29.516Z,1.20
2022-11-10T06:38:50.428Z,1.50
2022-11-10T06:41:11.532Z,1.25
2022-11-10T06:43:33.151Z,1.67
2022-11-10T06:45:53.958Z,1.50
2022-11-10T06:48:15.158Z,1.50
2022-11-10T06:50:35.842Z,1.80
2022-11-10T06:53:01.175Z,1.60
2022-11-10T06:55:22.192Z,1.60
2022-11-10T06:57:43.139Z,1.43
2022-11-10T07:00:04.862Z,1.50
2022-11-10T07:02:25.807Z,1.73
2022-11-10T07:04:46.806Z,2.27
2022-11-10T07:07:07.706Z,1.90
2022-11-10T07:09:28.586Z,2.17
2022-11-10T07:11:49.291Z,1.90
2022-11-10T07:14:10.509Z,2.30
2022-11-10T07:16:31.082Z,1.90
2022-11-10T07:18:52.033Z,1.97
2022-11-10T07:21:13.099Z,2.77
2022-11-10T07:23:35.075Z,2.07
2022-11-10T07:26:02.256Z,2.40
2022-11-10T07:28:28.242Z,2.30
2022-11-10T07:30:50.192Z,2.70
2022-11-10T07:33:13.502Z,2.67
2022-11-10T07:35:36.374Z,3.10
2022-11-10T07:37:59.660Z,2.20
2022-11-10T07:40:20.375Z,2.50
2022-11-10T07:42:41.387Z,2.40
2022-11-10T07:45:02.732Z,2.63
2022-11-10T07:47:24.633Z,2.80
2022-11-10T07:49:45.668Z,2.30
2022-11-10T07:52:06.402Z,2.43
2022-11-10T07:54:53.038Z,2.30
2022-11-10T07:57:13.997Z,2.97
2022-11-10T07:59:34.958Z,2.97
2022-11-10T08:01:56.068Z,2.40
2022-11-10T08:04:17.160Z,2.30
2022-11-10T08:06:37.930Z,2.70
2022-11-10T08:08:59.408Z,2.78
2022-11-10T08:11:20.647Z,2.40
2022-11-10T08:13:42.597Z,2.50
2022-11-10T08:16:05.519Z,2.60
2022-11-10T08:18:29.606Z,2.60
2022-11-10T08:20:53.717Z,2.33
2022-11-10T08:23:15.391Z,2.30
2022-11-10T08:25:37.458Z,2.60
2022-11-10T08:28:00.383Z,2.70
2022-11-10T08:30:21.487Z,2.50
2022-11-10T08:32:42.735Z,3.00
2022-11-10T08:35:03.850Z,2.45
2022-11-10T08:37:26.961Z,1.90
2022-11-10T08:39:47.972Z,2.50
2022-11-10T08:42:09.613Z,2.20
2022-11-10T08:44:30.236Z,2.50
2022-11-10T08:46:51.401Z,2.20
2022-11-10T08:49:12.223Z,3.20
2022-11-10T08:51:38.720Z,3.00
2022-11-10T08:54:02.344Z,2.30
2022-11-10T08:56:23.083Z,2.73
2022-11-10T08:58:50.375Z,2.50
2022-11-10T09:01:14.155Z,2.20
2022-11-10T09:03:37.489Z,2.70
2022-11-10T09:05:58.953Z,2.50
2022-11-10T09:08:20.432Z,2.80
2022-11-10T09:10:44.533Z,2.30
2022-11-10T09:13:06.008Z,2.40
2022-11-10T09:15:27.617Z,2.80
2022-11-10T09:17:48.488Z,2.20
2022-11-10T09:20:12.652Z,2.40
2022-11-10T09:22:35.485Z,2.40
2022-11-10T09:25:23.340Z,2.93
2022-11-10T09:27:44.226Z,2.50
2022-11-10T09:30:07.545Z,3.40
2022-11-10T09:32:29.355Z,3.60
2022-11-10T09:34:52.980Z,2.70
2022-11-10T09:37:14.219Z,3.00
2022-11-10T09:39:35.099Z,2.67
2022-11-10T09:42:04.032Z,2.50
2022-11-10T09:44:38.542Z,2.70
2022-11-10T09:47:12.384Z,2.67
2022-11-10T09:49:41.955Z,2.97
2022-11-10T09:52:04.485Z,2.70
2022-11-10T09:54:44.067Z,2.80
2022-11-10T09:57:08.802Z,2.90
2022-11-10T09:59:32.479Z,3.40
2022-11-10T10:02:03.103Z,2.97
2022-11-10T10:05:09.935Z,3.47
2022-11-10T10:07:48.696Z,3.40
2022-11-10T10:10:31.413Z,3.10
2022-11-10T10:13:26.194Z,3.53
2022-11-10T10:16:16.712Z,3.13
2022-11-10T10:19:00.664Z,2.50
2022-11-10T10:21:32.363Z,2.83
2022-11-10T10:24:21.052Z,3.23
2022-11-10T10:26:51.392Z,2.90
2022-11-10T10:29:37.670Z,3.17
2022-11-10T10:32:01.891Z,3.03
2022-11-10T10:34:27.544Z,3.17
2022-11-10T10:36:49.066Z,2.63
2022-11-10T10:39:17.327Z,2.50
2022-11-10T10:41:38.694Z,3.50
2022-11-10T10:44:02.319Z,2.77
2022-11-10T10:46:30.274Z,3.20
2022-11-10T10:49:28.231Z,2.60
2022-11-10T10:51:53.064Z,3.00
2022-11-10T10:54:34.223Z,3.20
2022-11-10T10:57:18.149Z,2.47
2022-11-10T10:59:38.881Z,2.80
2022-11-10T11:01:59.799Z,2.27
2022-11-10T11:05:12.330Z,2.50
2022-11-10T11:07:33.506Z,2.47
2022-11-10T11:09:54.473Z,2.57
2022-11-10T11:12:23.194Z,2.90
2022-11-10T11:14:46.199Z,2.70
2022-11-10T11:17:19.902Z,2.40
2022-11-10T11:19:41.292Z,2.40
2022-11-10T11:22:40.019Z,2.20
2022-11-10T11:25:32.179Z,2.87
2022-11-10T11:28:25.995Z,2.50
2022-11-10T11:31:05.287Z,3.03
2022-11-10T11:33:34.021Z,3.17
2022-11-10T11:36:13.614Z,2.40
2022-11-10T11:38:58.511Z,2.47
2022-11-10T11:41:29.334Z,2.43
2022-11-10T11:43:56.555Z,2.23
2022-11-10T11:46:35.958Z,2.00
2022-11-10T11:49:26.654Z,2.70
2022-11-10T11:52:18.590Z,2.53
2022-11-10T11:55:16.429Z,2.83
2022-11-10T11:58:06.209Z,2.37
2022-11-10T12:00:31.341Z,1.97
2022-11-10T12:03:17.238Z,2.43
2022-11-10T12:05:52.782Z,2.57
2022-11-10T12:08:35.703Z,2.63
2022-11-10T12:11:20.980Z,3.00
2022-11-10T12:13:47.712Z,2.20
2022-11-10T12:16:25.881Z,2.80
2022-11-10T12:18:55.556Z,2.30
2022-11-10T12:21:33.136Z,2.20
2022-11-10T12:24:20.568Z,2.60
2022-11-10T12:26:56.955Z,2.03
2022-11-10T12:29:39.047Z,2.30
2022-11-10T12:32:10.741Z,2.60
2022-11-10T12:34:44.123Z,2.70
2022-11-10T12:37:07.777Z,2.57
2022-11-10T12:39:52.398Z,3.07
2022-11-10T12:42:18.859Z,1.97
2022-11-10T12:44:57.474Z,2.50
2022-11-10T12:47:22.891Z,2.37
2022-11-10T12:50:09.930Z,2.20
2022-11-10T12:52:40.782Z,2.22
2022-11-10T12:55:01.915Z,1.97
2022-11-10T12:57:28.940Z,1.70
2022-11-10T12:59:54.348Z,3.10
2022-11-10T13:02:26.266Z,2.00
2022-11-10T13:05:14.451Z,2.08
2022-11-10T13:07:35.199Z,3.23
2022-11-10T13:10:21.420Z,1.93
2022-11-10T13:13:04.375Z,2.70
2022-11-10T13:15:37.977Z,2.60
2022-11-10T13:17:58.934Z,2.60
2022-11-10T13:21:23.627Z,2.33
2022-11-10T13:23:48.695Z,2.57
2022-11-10T13:26:11.890Z,2.30
2022-11-10T13:28:48.016Z,2.40
2022-11-10T13:31:27.351Z,2.53
2022-11-10T13:34:09.552Z,2.13
2022-11-10T13:36:42.289Z,2.17
2022-11-10T13:39:19.584Z,2.67
2022-11-10T13:41:55.947Z,2.83
2022-11-10T13:44:25.523Z,1.97
2022-11-10T13:47:07.772Z,2.60
2022-11-10T13:49:48.068Z,1.97
2022-11-10T13:52:25.322Z,2.00
2022-11-10T13:55:14.694Z,1.73
2022-11-10T13:57:54.356Z,1.77
2022-11-10T14:00:16.978Z,2.07
2022-11-10T14:02:47.689Z,3.00
2022-11-10T14:05:47.138Z,2.07
2022-11-10T14:08:14.395Z,2.30
2022-11-10T14:10:45.200Z,2.23
2022-11-10T14:14:09.851Z,2.13
2022-11-10T14:16:32.976Z,2.40
2022-11-10T14:19:21.346Z,2.30
2022-11-10T14:22:09.150Z,2.23
2022-11-10T14:24:42.992Z,2.40
2022-11-10T14:27:13.198Z,2.17
2022-11-10T14:29:38.520Z,2.33
2022-11-10T14:32:03.028Z,2.07
2022-11-10T14:34:24.876Z,2.10
2022-11-10T14:36:54.454Z,2.40
2022-11-10T14:39:17.006Z,1.80
2022-11-10T14:41:47.602Z,1.65
2022-11-10T14:44:15.440Z,2.87
2022-11-10T14:46:38.446Z,2.22
2022-11-10T14:49:10.828Z,2.10
2022-11-10T14:51:34.867Z,2.00
2022-11-10T14:53:57.080Z,2.20
2022-11-10T14:56:27.405Z,2.20
2022-11-10T14:58:49.832Z,2.27
2022-11-10T15:01:33.955Z,1.70
2022-11-10T15:03:56.756Z,1.77
2022-11-10T15:06:18.216Z,2.50
2022-11-10T15:08:40.546Z,1.40
2022-11-10T15:11:02.154Z,1.48
2022-11-10T15:13:37.249Z,1.80
2022-11-10T15:16:20.686Z,1.90
2022-11-10T15:18:41.264Z,1.70
2022-11-10T15:21:05.161Z,1.50
2022-11-10T15:23:38.085Z,1.37
2022-11-10T15:25:59.377Z,1.50
2022-11-10T15:28:26.914Z,1.63
2022-11-10T15:30:57.526Z,1.90
2022-11-10T15:33:25.441Z,1.60
2022-11-10T15:35:46.545Z,1.70
2022-11-10T15:38:28.764Z,2.30
2022-11-10T15:40:51.917Z,2.27
2022-11-10T15:43:22.727Z,2.40
2022-11-10T15:45:46.398Z,2.13
2022-11-10T15:48:12.878Z,2.80
2022-11-10T15:50:34.112Z,2.00
2022-11-10T15:52:55.027Z,2.90
2022-11-10T15:55:20.697Z,2.10
2022-11-10T15:57:41.691Z,2.03
2022-11-10T16:00:03.165Z,1.70
2022-11-10T16:02:26.152Z,1.80
2022-11-10T16:04:48.941Z,2.07
2022-11-10T16:07:10.071Z,2.17
2022-11-10T16:09:30.966Z,2.45
2022-11-10T16:11:51.959Z,2.40
2022-11-10T16:14:16.724Z,2.50
2022-11-10T16:17:04.372Z,2.80
2022-11-10T16:19:24.834Z,2.70
2022-11-10T16:21:49.593Z,2.63
2022-11-10T16:24:10.410Z,2.20
2022-11-10T16:26:33.206Z,2.37
2022-11-10T16:28:56.367Z,2.80
2022-11-10T16:31:23.898Z,2.20
2022-11-10T16:33:45.609Z,1.97
2022-11-10T16:36:16.098Z,2.03
2022-11-10T16:38:37.022Z,2.10
2022-11-10T16:41:02.865Z,1.90
2022-11-10T16:43:24.785Z,1.90
2022-11-10T16:45:47.663Z,1.90
2022-11-10T16:48:08.708Z,1.60
2022-11-10T16:50:37.940Z,2.03
2022-11-10T16:53:25.531Z,1.35
2022-11-10T16:55:47.455Z,1.70
2022-11-10T16:58:08.439Z,1.45
2022-11-10T17:00:29.468Z,1.20
2022-11-10T17:02:56.895Z,1.30
2022-11-10T17:05:18.128Z,1.10
2022-11-10T17:07:39.362Z,1.50
2022-11-10T17:10:01.602Z,2.10
2022-11-10T17:12:22.422Z,1.73
2022-11-10T17:14:42.922Z,1.80
2022-11-10T17:17:03.723Z,1.70
2022-11-10T17:19:26.428Z,1.90
2022-11-10T17:21:48.593Z,2.03
2022-11-10T17:24:13.920Z,1.90
2022-11-10T17:26:34.705Z,2.60
2022-11-10T17:29:01.774Z,2.70
2022-11-10T17:31:22.656Z,2.60
2022-11-10T17:33:43.630Z,2.60
2022-11-10T17:36:05.961Z,3.00
2022-11-10T17:38:29.489Z,3.07
2022-11-10T17:40:51.382Z,2.80
2022-11-10T17:43:14.293Z,2.80
2022-11-10T17:45:34.960Z,3.13
2022-11-10T17:47:55.909Z,3.37
2022-11-10T17:50:19.451Z,4.03
2022-11-10T17:52:40.591Z,4.50
2022-11-10T17:55:01.337Z,3.97
2022-11-10T17:57:22.019Z,4.40
2022-11-10T17:59:42.906Z,4.93
2022-11-10T18:02:11.490Z,5.13
2022-11-10T18:04:32.029Z,5.13
2022-11-10T18:06:52.744Z,4.47
2022-11-10T18:09:13.799Z,3.33
2022-11-10T18:11:34.661Z,3.53
2022-11-10T18:13:55.533Z,4.37
2022-11-10T18:16:17.568Z,4.87
2022-11-10T18:18:38.772Z,4.80
2022-11-10T18:20:59.584Z,6.10
2022-11-10T18:23:20.756Z,6.00
2022-11-10T18:25:42.689Z,5.80
2022-11-10T18:28:03.566Z,6.30
2022-11-10T18:30:24.292Z,5.32
2022-11-10T18:32:45.219Z,5.70
2022-11-10T18:35:06.304Z,5.00
2022-11-10T18:37:33.004Z,5.60
2022-11-10T18:39:56.303Z,4.90
2022-11-10T18:42:17.302Z,4.70
2022-11-10T18:44:39.000Z,6.03
2022-11-10T18:47:00.111Z,4.50
2022-11-10T18:49:21.456Z,4.63
2022-11-10T18:51:42.724Z,4.27
2022-11-10T18:54:06.075Z,4.73
2022-11-10T18:56:27.335Z,5.30
2022-11-10T18:58:55.289Z,4.23
2022-11-10T19:01:18.233Z,4.30
2022-11-10T19:03:38.889Z,4.63
2022-11-10T19:06:00.107Z,7.70
2022-11-10T19:08:20.890Z,6.83
2022-11-10T19:10:42.542Z,5.00
2022-11-10T19:13:05.619Z,5.23
2022-11-10T19:15:27.132Z,4.83
2022-11-10T19:17:47.839Z,4.37
2022-11-10T19:20:10.256Z,4.20
2022-11-10T19:22:31.148Z,4.37
2022-11-10T19:25:07.458Z,4.77
2022-11-10T19:27:29.271Z,5.20
2022-11-10T19:29:50.142Z,6.23
2022-11-10T19:32:11.360Z,5.90
2022-11-10T19:34:32.153Z,6.93
2022-11-10T19:36:54.347Z,9.17
2022-11-10T19:39:15.232Z,7.20
2022-11-10T19:41:36.888Z,6.70
2022-11-10T19:44:03.139Z,6.10
2022-11-10T19:46:27.629Z,5.13
2022-11-10T19:48:48.165Z,11.20
2022-11-10T19:51:12.880Z,13.63
2022-11-10T19:53:45.286Z,12.87
2022-11-10T19:56:12.808Z,12.10
2022-11-10T19:58:39.091Z,11.43
2022-11-10T20:01:05.611Z,7.80
2022-11-10T20:03:29.491Z,6.00
2022-11-10T20:05:59.093Z,5.10
2022-11-10T20:08:24.961Z,5.20
2022-11-10T20:10:46.629Z,3.87
2022-11-10T20:13:09.477Z,4.30
2022-11-10T20:15:30.433Z,4.53
2022-11-10T20:17:51.277Z,4.60
2022-11-10T20:20:12.243Z,3.90
2022-11-10T20:22:33.748Z,3.90
2022-11-10T20:24:54.467Z,4.20
2022-11-10T20:28:06.924Z,5.13
2022-11-10T20:30:27.876Z,5.40
2022-11-10T20:32:48.703Z,5.10
2022-11-10T20:35:09.640Z,4.50
2022-11-10T20:37:33.993Z,4.20
2022-11-10T20:39:58.993Z,4.57
2022-11-10T20:42:33.412Z,3.70
2022-11-10T20:44:54.499Z,3.63
2022-11-10T20:47:15.123Z,2.90
2022-11-10T20:49:36.065Z,2.73
2022-11-10T20:51:59.839Z,2.70
2022-11-10T20:54:20.952Z,3.10
2022-11-10T20:57:07.786Z,2.60
2022-11-10T20:59:28.840Z,2.30
2022-11-10T21:01:49.548Z,2.10
2022-11-10T21:04:11.051Z,2.40
2022-11-10T21:06:31.998Z,1.90
2022-11-10T21:08:53.539Z,2.75
2022-11-10T21:11:34.446Z,2.10
2022-11-10T21:13:55.373Z,2.30
2022-11-10T21:16:32.729Z,2.47
2022-11-10T21:18:57.487Z,2.10
2022-11-10T21:21:26.372Z,2.00
2022-11-10T21:23:47.176Z,2.20
2022-11-10T21:26:08.600Z,1.80
2022-11-10T21:28:29.433Z,1.90
2022-11-10T21:30:50.717Z,1.80
2022-11-10T21:33:11.828Z,1.70
2022-11-10T21:35:38.211Z,1.50
2022-11-10T21:37:59.127Z,2.10
2022-11-10T21:40:22.321Z,1.60
2022-11-10T21:42:43.396Z,2.00
2022-11-10T21:45:04.911Z,1.80
2022-11-10T21:47:26.146Z,1.60
2022-11-10T21:49:46.807Z,1.97
2022-11-10T21:52:07.747Z,1.83
2022-11-10T21:54:28.734Z,2.17
2022-11-10T21:56:50.220Z,1.83
2022-11-10T21:59:11.814Z,1.80
2022-11-10T22:01:32.562Z,2.40
2022-11-10T22:03:53.297Z,1.87
2022-11-10T22:06:16.678Z,2.43
2022-11-10T22:08:38.404Z,2.50
2022-11-10T22:11:18.297Z,2.80
2022-11-10T22:13:59.830Z,2.70
2022-11-10T22:16:42.351Z,2.95
2022-11-10T22:19:05.762Z,3.33
2022-11-10T22:21:26.375Z,3.97
2022-11-10T22:24:05.740Z,5.03
2022-11-10T22:26:29.874Z,4.80
2022-11-10T22:28:50.365Z,5.00
2022-11-10T22:31:12.325Z,4.20
2022-11-10T22:33:36.205Z,4.13
2022-11-10T22:35:58.098Z,4.60
2022-11-10T22:38:18.777Z,4.77
2022-11-10T22:40:58.146Z,4.10
2022-11-10T22:43:37.749Z,3.93
2022-11-10T22:45:58.846Z,3.73
2022-11-10T22:48:28.648Z,3.72
2022-11-10T22:50:56.522Z,4.00
2022-11-10T22:53:17.458Z,3.25
2022-11-10T22:55:38.214Z,3.37
2022-11-10T22:57:59.023Z,3.50
2022-11-10T23:00:20.274Z,3.03
2022-11-10T23:02:41.035Z,3.07
2022-11-10T23:05:01.948Z,2.50
2022-11-10T23:07:22.832Z,2.47
2022-11-10T23:09:43.846Z,2.60
2022-11-10T23:12:12.018Z,2.80
2022-11-10T23:14:32.876Z,2.53
2022-11-10T23:16:53.480Z,2.77
2022-11-10T23:19:14.284Z,2.60
2022-11-10T23:21:35.031Z,2.73
2022-11-10T23:24:55.725Z,2.30
2022-11-10T23:27:18.227Z,2.30
2022-11-10T23:29:39.022Z,2.00
2022-11-10T23:31:59.881Z,2.40
2022-11-10T23:34:20.524Z,2.10
2022-11-10T23:36:42.001Z,2.33
2022-11-10T23:39:31.523Z,2.47
2022-11-10T23:41:52.081Z,2.33
2022-11-10T23:44:12.978Z,2.77
2022-11-10T23:46:58.507Z,2.77
2022-11-10T23:49:19.238Z,2.97
2022-11-10T23:51:39.760Z,2.63
2022-11-10T23:54:00.693Z,2.53
2022-11-10T23:56:21.450Z,2.73
2022-11-10T23:58:42.675Z,2.85
